Time,TemperatureF,DewpointF,PressureIn,WindDirection,WindDirectionDegrees,WindSpeedMPH,WindSpeedGustMPH,Humidity,HourlyPrecipIn,Conditions,Clouds,dailyrainin,SoftwareType,DateUTC
2013-01-01 00:02:00,47.0,-99.9,-100.00,East,95,0.0,1.0,-999,-99.99,,,-99.99,,2013-01-01 08:02:00,
2013-01-01 01:20:00,42.0,-99.9,-100.00,SW,228,0.0,1.0,-999,-99.99,,,-99.99,,2013-01-01 09:20:00,
2013-01-01 02:02:00,42.0,-99.9,-100.00,SW,228,0.0,1.0,-999,-99.99,,,-99.99,,2013-01-01 10:02:00,
2013-01-01 02:12:00,42.0,-99.9,-100.00,SW,228,0.0,1.0,-999,-99.99,,,-99.99,,2013-01-01 10:12:00,
2013-01-01 04:50:00,39.0,-99.9,-100.00,WSW,244,1.0,3.0,-999,-99.99,,,-99.99,,2013-01-01 12:50:00,
2013-01-01 04:53:00,39.0,-99.9,-100.00,West,280,1.0,2.0,-999,-99.99,,,-99.99,,2013-01-01 12:53:00,
2013-01-01 05:03:00,40.0,-99.9,-100.00,WSW,258,1.0,4.0,-999,-99.99,,,-99.99,,2013-01-01 13:03:00,
2013-01-01 05:12:00,40.0,-99.9,-100.00,WSW,258,1.0,4.0,-999,-99.99,,,-99.99,,2013-01-01 13:12:00,
2013-01-01 05:22:00,40.0,-99.9,-100.00,WSW,258,1.0,4.0,-999,-99.99,,,-99.99,,2013-01-01 13:22:00,
2013-01-01 05:33:00,39.0,-99.9,-100.00,WSW,244,1.0,3.0,-999,-99.99,,,-99.99,,2013-01-01 13:33:00,
2013-01-01 05:43:00,39.0,-99.9,-100.00,WSW,244,1.0,3.0,-999,-99.99,,,-99.99,,2013-01-01 13:43:00,
2013-01-01 08:33:00,51.0,-99.9,-100.00,ESE,119,1.0,6.0,-999,-99.99,,,-99.99,,2013-01-01 16:33:00,
2013-01-01 08:43:00,51.0,-99.9,-100.00,ESE,119,1.0,6.0,-999,-99.99,,,-99.99,,2013-01-01 16:43:00,
2013-01-01 10:23:00,54.0,-99.9,-100.00,East,81,3.0,8.0,-999,-99.99,,,-99.99,,2013-01-01 18:23:00,
2013-01-01 10:33:00,54.0,-99.9,-100.00,East,81,3.0,8.0,-999,-99.99,,,-99.99,,2013-01-01 18:33:00,
2013-01-01 12:02:00,57.0,-99.9,-100.00,ENE,78,8.0,15.0,-999,-99.99,,,-99.99,,2013-01-01 20:02:00,
2013-01-01 12:13:00,57.0,-99.9,-100.00,ENE,78,8.0,15.0,-999,-99.99,,,-99.99,,2013-01-01 20:13:00,
2013-01-01 12:23:00,57.0,-99.9,-100.00,ENE,78,8.0,15.0,-999,-99.99,,,-99.99,,2013-01-01 20:23:00,
2013-01-01 15:03:00,58.0,-99.9,-100.00,East,90,10.0,12.0,-999,-99.99,,,-99.99,,2013-01-01 23:03:00,
2013-01-01 15:13:00,58.0,-99.9,-100.00,East,90,10.0,12.0,-999,-99.99,,,-99.99,,2013-01-01 23:13:00,
2013-01-01 15:22:00,58.0,-99.9,-100.00,East,90,10.0,12.0,-999,-99.99,,,-99.99,,2013-01-01 23:22:00,
2013-01-01 16:20:00,58.0,-99.9,-100.00,SE,132,3.0,8.0,-999,-99.99,,,-99.99,,2013-01-02 00:20:00,
2013-01-01 17:02:00,58.0,-99.9,-100.00,SE,132,3.0,8.0,-999,-99.99,,,-99.99,,2013-01-02 01:02:00,
2013-01-01 17:12:00,58.0,-99.9,-100.00,SE,132,3.0,8.0,-999,-99.99,,,-99.99,,2013-01-02 01:12:00,
2013-01-01 19:22:00,57.0,-99.9,-100.00,East,94,13.0,20.0,-999,-99.99,,,-99.99,,2013-01-02 03:22:00,
2013-01-01 19:33:00,57.0,-99.9,-100.00,East,94,13.0,20.0,-999,-99.99,,,-99.99,,2013-01-02 03:33:00,
2013-01-01 20:22:00,57.0,-99.9,-100.00,SE,143,6.0,14.0,-999,-99.99,,,-99.99,,2013-01-02 04:22:00,
2013-01-01 20:33:00,57.0,-99.9,-100.00,East,95,10.0,14.0,-999,-99.99,,,-99.99,,2013-01-02 04:33:00,
2013-01-01 20:42:00,57.0,-99.9,-100.00,East,95,10.0,14.0,-999,-99.99,,,-99.99,,2013-01-02 04:42:00,
2013-01-01 20:53:00,57.0,-99.9,-100.00,East,95,10.0,14.0,-999,-99.99,,,-99.99,,2013-01-02 04:53:00,
2013-01-01 23:02:00,56.0,-99.9,-100.00,ESE,105,2.0,10.0,-999,-99.99,,,-99.99,,2013-01-02 07:02:00,
2013-01-01 23:12:00,56.0,-99.9,-100.00,ESE,105,2.0,10.0,-999,-99.99,,,-99.99,,2013-01-02 07:12:00,
2013-01-01 23:22:00,56.0,-99.9,-100.00,ESE,105,2.0,10.0,-999,-99.99,,,-99.99,,2013-01-02 07:22:00,
2013-01-01 23:52:00,56.0,-99.9,-100.00,East,99,4.0,14.0,-999,-99.99,,,-99.99,,2013-01-02 07:52:00,